createdAt,value
2019-02-26T00:01:57.983Z,14.63
2019-02-26T00:04:29.784Z,15.67
2019-02-26T00:07:00.913Z,14.67
2019-02-26T00:09:34.675Z,15.07
2019-02-26T00:12:03.201Z,13.93
2019-02-26T00:14:33.425Z,16.13
2019-02-26T00:17:06.363Z,15.07
2019-02-26T00:19:35.752Z,13.87
2019-02-26T00:22:07.783Z,15.10
2019-02-26T00:24:39.753Z,13.83
2019-02-26T00:27:09.960Z,14.60
2019-02-26T00:29:40.120Z,13.90
2019-02-26T00:32:12.262Z,14.43
2019-02-26T00:34:42.184Z,13.57
2019-02-26T00:37:12.384Z,14.93
2019-02-26T00:39:42.723Z,14.47
2019-02-26T00:42:13.034Z,13.77
2019-02-26T00:44:43.255Z,14.63
2019-02-26T00:47:13.586Z,14.53
2019-02-26T00:49:44.236Z,14.13
2019-02-26T00:52:16.191Z,13.90
2019-02-26T00:54:46.397Z,14.07
2019-02-26T00:57:16.667Z,14.90
2019-02-26T00:59:48.104Z,14.37
2019-02-26T01:02:18.495Z,13.97
2019-02-26T01:04:50.885Z,14.33
2019-02-26T01:07:21.371Z,13.93
2019-02-26T01:09:54.612Z,14.47
2019-02-26T01:12:24.752Z,14.97
2019-02-26T01:14:55.066Z,14.33
2019-02-26T01:17:25.257Z,13.43
2019-02-26T01:19:56.479Z,13.40
2019-02-26T01:22:27.645Z,14.83
2019-02-26T01:24:58.473Z,13.17
2019-02-26T01:27:28.820Z,13.10
2019-02-26T01:30:00.428Z,13.57
2019-02-26T01:32:31.304Z,14.23
2019-02-26T01:35:03.419Z,13.70
2019-02-26T01:37:36.125Z,13.53
2019-02-26T01:40:09.417Z,14.47
2019-02-26T01:42:37.887Z,13.70
2019-02-26T01:45:09.371Z,12.83
2019-02-26T01:47:40.428Z,13.40
2019-02-26T01:50:15.751Z,14.37
2019-02-26T01:52:43.884Z,14.20
2019-02-26T01:55:16.002Z,14.07
2019-02-26T01:57:46.296Z,15.00
2019-02-26T02:00:17.564Z,14.17
2019-02-26T02:02:47.949Z,14.03
2019-02-26T02:05:19.688Z,14.40
2019-02-26T02:07:51.824Z,14.43
2019-02-26T02:10:22.425Z,14.77
2019-02-26T02:12:55.242Z,13.30
2019-02-26T02:15:24.480Z,13.43
2019-02-26T02:17:56.691Z,13.90
2019-02-26T02:20:26.874Z,13.67
2019-02-26T02:22:58.166Z,15.43
2019-02-26T02:25:33.248Z,14.90
2019-02-26T02:28:02.810Z,14.37
2019-02-26T02:30:38.869Z,14.00
2019-02-26T02:33:07.911Z,15.87
2019-02-26T02:35:38.184Z,13.90
2019-02-26T02:38:08.609Z,14.03
2019-02-26T02:40:40.228Z,14.80
2019-02-26T02:43:13.230Z,13.63
2019-02-26T02:45:43.068Z,13.63
2019-02-26T02:48:14.177Z,13.63
2019-02-26T02:50:44.587Z,13.60
2019-02-26T02:53:14.856Z,14.10
2019-02-26T02:55:46.966Z,13.57
2019-02-26T02:58:18.178Z,13.43
2019-02-26T03:00:51.613Z,13.77
2019-02-26T03:03:20.983Z,12.67
2019-02-26T03:05:51.301Z,12.93
2019-02-26T03:08:22.444Z,13.37
2019-02-26T03:10:53.287Z,14.47
2019-02-26T03:13:25.469Z,13.50
2019-02-26T03:15:56.645Z,12.43
2019-02-26T03:18:27.676Z,13.77
2019-02-26T03:20:59.985Z,13.63
2019-02-26T03:23:31.290Z,12.93
2019-02-26T03:26:01.703Z,13.60
2019-02-26T03:28:34.876Z,13.40
2019-02-26T03:31:03.692Z,13.57
2019-02-26T03:33:33.873Z,13.90
2019-02-26T03:36:07.590Z,13.87
2019-02-26T03:38:36.056Z,13.03
2019-02-26T03:41:06.442Z,13.90
2019-02-26T03:43:39.234Z,14.60
2019-02-26T03:46:08.565Z,13.13
2019-02-26T03:48:38.868Z,13.13
2019-02-26T03:51:09.213Z,13.80
2019-02-26T03:53:41.651Z,12.87
2019-02-26T03:56:12.504Z,13.23
2019-02-26T03:58:43.771Z,13.53
2019-02-26T04:01:18.296Z,13.00
2019-02-26T04:03:46.166Z,13.63
2019-02-26T04:06:16.383Z,12.80
2019-02-26T04:08:48.578Z,12.90
2019-02-26T04:11:19.974Z,12.83
2019-02-26T04:13:52.273Z,12.53
2019-02-26T04:16:22.915Z,13.27
2019-02-26T04:18:53.151Z,12.47
2019-02-26T04:21:23.556Z,12.83
2019-02-26T04:23:54.063Z,12.90
2019-02-26T04:27:02.088Z,13.13
2019-02-26T04:29:52.912Z,11.93
2019-02-26T04:33:14.054Z,12.57
2019-02-26T04:36:23.055Z,13.93
2019-02-26T04:39:36.739Z,12.43
2019-02-26T04:42:29.061Z,13.53
2019-02-26T04:45:44.991Z,13.23
2019-02-26T04:48:26.274Z,13.20
2019-02-26T04:50:55.443Z,13.63
2019-02-26T04:53:28.647Z,13.17
2019-02-26T04:55:59.786Z,13.00
2019-02-26T04:58:30.379Z,12.67
2019-02-26T05:01:00.867Z,13.00
2019-02-26T05:03:31.356Z,13.07
2019-02-26T05:06:03.055Z,13.13
2019-02-26T05:08:37.111Z,12.87
2019-02-26T05:11:05.224Z,13.43
2019-02-26T05:13:35.596Z,13.17
2019-02-26T05:16:05.807Z,12.40
2019-02-26T05:18:35.822Z,12.17
2019-02-26T05:21:08.308Z,12.57
2019-02-26T05:23:37.904Z,12.57
2019-02-26T05:26:11.653Z,13.20
2019-02-26T05:28:41.819Z,11.13
2019-02-26T05:31:14.475Z,12.43
2019-02-26T05:33:46.331Z,11.83
2019-02-26T05:36:17.269Z,12.00
2019-02-26T05:38:49.277Z,12.63
2019-02-26T05:41:19.903Z,11.70
2019-02-26T05:43:55.208Z,11.37
2019-02-26T05:46:26.380Z,11.90
2019-02-26T05:48:54.302Z,11.57
2019-02-26T05:51:27.226Z,11.93
2019-02-26T05:53:56.434Z,11.97
2019-02-26T05:56:26.639Z,11.93
2019-02-26T05:58:57.089Z,12.17
2019-02-26T06:01:27.868Z,11.87
2019-02-26T06:03:58.158Z,12.30
2019-02-26T06:06:28.370Z,13.33
2019-02-26T06:08:59.849Z,12.23
2019-02-26T06:11:33.262Z,12.37
2019-02-26T06:14:06.713Z,12.83
2019-02-26T06:16:34.480Z,12.50
2019-02-26T06:19:08.298Z,11.50
2019-02-26T06:21:41.834Z,11.77
2019-02-26T06:24:09.688Z,12.90
2019-02-26T06:26:41.205Z,12.17
2019-02-26T06:29:11.763Z,11.83
2019-02-26T06:31:44.209Z,12.87
2019-02-26T06:34:16.179Z,13.67
2019-02-26T06:36:46.620Z,13.00
2019-02-26T06:39:20.211Z,13.70
2019-02-26T06:41:51.296Z,13.30
2019-02-26T06:44:21.683Z,13.70
2019-02-26T06:46:52.023Z,13.57
2019-02-26T06:49:24.432Z,13.87
2019-02-26T06:51:54.495Z,13.00
2019-02-26T06:54:26.624Z,11.90
2019-02-26T06:56:56.511Z,11.50
2019-02-26T06:59:33.801Z,11.70
2019-02-26T07:02:02.873Z,12.50
2019-02-26T07:04:33.076Z,12.83
2019-02-26T07:07:04.429Z,12.10
2019-02-26T07:09:36.860Z,12.13
2019-02-26T07:12:07.663Z,12.27
2019-02-26T07:14:37.956Z,10.87
2019-02-26T07:17:08.174Z,11.07
2019-02-26T07:19:38.501Z,11.03
2019-02-26T07:22:11.134Z,12.43
2019-02-26T07:24:41.785Z,11.87
2019-02-26T07:27:13.909Z,13.50
2019-02-26T07:29:45.607Z,11.97
2019-02-26T07:32:17.792Z,11.93
2019-02-26T07:34:51.658Z,12.37
2019-02-26T07:37:20.394Z,11.50
2019-02-26T07:39:51.597Z,11.37
2019-02-26T07:42:21.931Z,11.50
2019-02-26T07:44:52.199Z,12.03
2019-02-26T07:47:24.289Z,11.53
2019-02-26T07:49:56.489Z,11.97
2019-02-26T07:52:28.359Z,12.07
2019-02-26T07:54:58.615Z,12.40
2019-02-26T07:57:29.047Z,11.50
2019-02-26T07:59:59.254Z,12.03
2019-02-26T08:02:30.622Z,11.60
2019-02-26T08:05:01.601Z,12.70
2019-02-26T08:07:33.175Z,11.07
2019-02-26T08:10:03.635Z,12.50
2019-02-26T08:12:35.587Z,12.47
2019-02-26T08:15:08.570Z,12.07
2019-02-26T08:17:38.500Z,12.77
2019-02-26T08:20:12.329Z,12.23
2019-02-26T08:22:42.212Z,12.27
2019-02-26T08:25:13.356Z,11.87
2019-02-26T08:27:43.651Z,12.30
2019-02-26T08:30:18.668Z,12.87
2019-02-26T08:32:51.044Z,13.20
2019-02-26T08:35:20.322Z,13.37
2019-02-26T08:37:50.614Z,12.93
2019-02-26T08:40:20.600Z,12.30
2019-02-26T08:43:09.400Z,14.10
2019-02-26T08:45:39.554Z,13.00
2019-02-26T08:48:09.960Z,12.80
2019-02-26T08:50:42.250Z,12.90
2019-02-26T08:53:12.316Z,13.27
2019-02-26T08:55:42.510Z,13.77
2019-02-26T08:58:12.711Z,13.83
2019-02-26T09:00:42.946Z,14.30
2019-02-26T09:03:13.857Z,14.67
2019-02-26T09:05:45.308Z,14.23
2019-02-26T09:08:16.335Z,14.80
2019-02-26T09:10:48.635Z,13.47
2019-02-26T09:13:18.956Z,14.10
2019-02-26T09:15:49.434Z,13.10
2019-02-26T09:18:20.417Z,13.70
2019-02-26T09:20:51.720Z,12.90
2019-02-26T09:23:23.538Z,12.27
2019-02-26T09:25:56.621Z,12.83
2019-02-26T09:28:27.086Z,13.60
2019-02-26T09:31:01.013Z,12.73
2019-02-26T09:33:32.811Z,12.93
2019-02-26T09:36:01.484Z,12.67
2019-02-26T09:38:31.707Z,12.40
2019-02-26T09:41:01.996Z,12.30
2019-02-26T09:43:32.118Z,12.90
2019-02-26T09:46:04.024Z,13.50
2019-02-26T09:48:35.916Z,13.17
2019-02-26T09:51:07.594Z,13.80
2019-02-26T09:53:38.279Z,13.43
2019-02-26T09:56:08.324Z,14.07
2019-02-26T09:58:40.378Z,12.63
2019-02-26T10:01:10.979Z,13.17
2019-02-26T10:03:41.592Z,13.23
2019-02-26T10:06:13.621Z,13.10
2019-02-26T10:08:43.904Z,14.03
2019-02-26T10:11:16.101Z,12.70
2019-02-26T10:13:48.818Z,13.77
2019-02-26T10:16:18.006Z,13.67
2019-02-26T10:18:49.590Z,13.13
2019-02-26T10:21:20.545Z,12.77
2019-02-26T10:23:52.149Z,11.77
2019-02-26T10:26:26.156Z,13.07
2019-02-26T10:28:59.085Z,12.23
2019-02-26T10:31:27.445Z,12.63
2019-02-26T10:33:57.138Z,12.53
2019-02-26T10:36:30.408Z,12.17
2019-02-26T10:39:00.748Z,12.57
2019-02-26T10:41:30.308Z,12.73
2019-02-26T10:44:00.256Z,12.30
2019-02-26T10:46:32.135Z,11.60
2019-02-26T10:49:02.043Z,12.20
2019-02-26T10:51:31.993Z,11.33
2019-02-26T10:54:02.809Z,11.37
2019-02-26T10:56:38.621Z,10.50
2019-02-26T10:59:06.846Z,12.37
2019-02-26T11:01:37.175Z,13.50
2019-02-26T11:04:07.186Z,13.57
2019-02-26T11:06:41.180Z,13.43
2019-02-26T11:09:17.214Z,13.67
2019-02-26T11:11:44.071Z,13.13
2019-02-26T11:14:16.682Z,13.37
2019-02-26T11:16:45.844Z,12.63
2019-02-26T11:19:15.786Z,12.87
2019-02-26T11:21:47.454Z,13.27
2019-02-26T11:24:17.327Z,12.87
2019-02-26T11:26:47.239Z,12.50
2019-02-26T11:29:17.160Z,14.13
2019-02-26T11:31:49.190Z,14.23
2019-02-26T11:34:18.647Z,13.40
2019-02-26T11:36:48.911Z,12.47
2019-02-26T11:39:18.877Z,13.47
2019-02-26T11:41:50.642Z,12.50
2019-02-26T11:44:22.751Z,12.30
2019-02-26T11:46:53.842Z,12.20
2019-02-26T11:49:23.710Z,12.80
2019-02-26T11:51:53.739Z,12.55
2019-02-26T11:54:23.676Z,12.28
2019-02-26T11:56:53.600Z,12.00
2019-02-26T11:59:23.583Z,12.70
2019-02-26T12:01:54.235Z,11.55
2019-02-26T12:04:25.236Z,12.13
2019-02-26T12:06:55.893Z,12.60
2019-02-26T12:09:26.856Z,12.07
2019-02-26T12:11:58.515Z,11.60
2019-02-26T12:14:28.412Z,11.73
2019-02-26T12:16:58.376Z,11.70
2019-02-26T12:19:30.633Z,11.78
2019-02-26T12:22:01.306Z,11.75
2019-02-26T12:24:33.537Z,11.40
2019-02-26T12:27:03.123Z,11.33
2019-02-26T12:29:33.053Z,11.88
2019-02-26T12:32:04.728Z,11.57
2019-02-26T12:34:35.223Z,12.20
2019-02-26T12:39:37.781Z,12.10
2019-02-26T12:42:10.487Z,11.83
2019-02-26T12:44:42.501Z,12.15
2019-02-26T12:47:12.002Z,11.60
2019-02-26T12:49:45.065Z,12.20
2019-02-26T12:52:15.198Z,11.43
2019-02-26T12:54:45.912Z,12.53
2019-02-26T12:57:18.488Z,11.15
2019-02-26T12:59:47.427Z,10.63
2019-02-26T13:02:20.914Z,11.45
2019-02-26T13:04:51.615Z,11.93
2019-02-26T13:07:22.410Z,12.05
2019-02-26T13:09:55.979Z,11.18
2019-02-26T13:12:28.518Z,11.53
2019-02-26T13:15:02.291Z,11.33
2019-02-26T13:17:31.552Z,11.08
2019-02-26T13:20:01.398Z,10.85
2019-02-26T13:22:30.429Z,10.28
2019-02-26T13:25:03.676Z,9.90
2019-02-26T13:27:31.975Z,10.32
2019-02-26T13:30:01.912Z,10.75
2019-02-26T13:32:32.376Z,9.78
2019-02-26T13:35:07.273Z,9.90
2019-02-26T13:37:36.577Z,9.85
2019-02-26T13:40:10.341Z,10.55
2019-02-26T13:42:40.481Z,10.45
2019-02-26T13:45:12.832Z,9.70
2019-02-26T13:47:42.929Z,9.18
2019-02-26T13:50:16.798Z,10.10
2019-02-26T13:52:46.811Z,10.20
2019-02-26T13:55:16.877Z,9.73
2019-02-26T13:57:47.179Z,8.78
2019-02-26T14:00:25.970Z,8.20
2019-02-26T14:02:49.305Z,7.85
2019-02-26T14:05:19.495Z,7.95
2019-02-26T14:07:49.575Z,8.63
2019-02-26T14:10:19.734Z,8.75
2019-02-26T14:12:49.962Z,8.45
2019-02-26T14:15:21.921Z,8.43
2019-02-26T14:17:52.127Z,9.30
2019-02-26T14:20:22.095Z,9.25
2019-02-26T14:22:52.244Z,9.08
2019-02-26T14:25:22.283Z,9.28
2019-02-26T14:27:52.208Z,8.95
2019-02-26T14:30:22.464Z,10.95
2019-02-26T14:32:52.624Z,10.77
2019-02-26T14:35:22.517Z,10.67
2019-02-26T14:37:52.547Z,10.57
2019-02-26T14:40:22.996Z,10.17
2019-02-26T14:42:52.968Z,10.80
2019-02-26T14:45:22.868Z,9.67
2019-02-26T14:47:52.855Z,9.67
2019-02-26T14:50:23.238Z,10.77
2019-02-26T14:52:53.297Z,9.83
2019-02-26T14:55:23.669Z,10.17
2019-02-26T14:57:54.148Z,10.27
2019-02-26T15:00:26.743Z,9.33
2019-02-26T15:02:57.380Z,8.43
2019-02-26T15:05:27.981Z,8.27
2019-02-26T15:07:58.211Z,8.73
2019-02-26T15:10:28.151Z,7.80
2019-02-26T15:12:58.347Z,7.90
2019-02-26T15:15:28.220Z,8.70
2019-02-26T15:17:58.112Z,7.63
2019-02-26T15:20:28.088Z,7.50
2019-02-26T15:22:58.040Z,6.87
2019-02-26T15:25:28.034Z,9.20
2019-02-26T15:28:04.707Z,9.33
2019-02-26T15:30:29.777Z,8.03
2019-02-26T15:32:59.721Z,9.00
2019-02-26T15:35:29.764Z,9.23
2019-02-26T15:37:59.803Z,9.53
2019-02-26T15:40:29.750Z,10.40
2019-02-26T15:42:59.611Z,9.33
2019-02-26T15:45:29.678Z,9.13
2019-02-26T15:48:03.719Z,8.97
2019-02-26T15:50:31.385Z,9.30
2019-02-26T15:53:01.340Z,9.07
2019-02-26T15:55:31.481Z,9.53
2019-02-26T15:58:04.001Z,9.63
2019-02-26T16:00:33.273Z,9.87
2019-02-26T16:03:03.327Z,8.73
2019-02-26T16:05:33.653Z,11.50
2019-02-26T16:08:03.541Z,10.90
2019-02-26T16:10:33.563Z,11.53
2019-02-26T16:13:06.619Z,12.47
2019-02-26T16:15:37.238Z,13.47
2019-02-26T16:18:07.438Z,12.33
2019-02-26T16:20:37.528Z,12.90
2019-02-26T16:23:07.527Z,12.97
2019-02-26T16:25:37.552Z,13.17
2019-02-26T16:28:07.461Z,13.43
2019-02-26T16:30:37.579Z,12.93
2019-02-26T16:33:07.608Z,13.37
2019-02-26T16:35:37.487Z,12.70
2019-02-26T16:38:07.544Z,12.57
2019-02-26T16:40:37.579Z,12.63
2019-02-26T16:43:07.828Z,12.93
2019-02-26T16:45:37.924Z,13.37
2019-02-26T16:48:08.172Z,14.27
2019-02-26T16:50:38.428Z,13.47
2019-02-26T16:53:08.888Z,13.67
2019-02-26T16:55:38.940Z,15.07
2019-02-26T16:58:09.087Z,14.30
2019-02-26T17:00:39.171Z,14.43
2019-02-26T17:03:09.218Z,14.20
2019-02-26T17:05:40.792Z,14.80
2019-02-26T17:08:11.089Z,14.17
2019-02-26T17:10:41.224Z,13.60
2019-02-26T17:13:11.316Z,14.37
2019-02-26T17:15:41.225Z,14.27
2019-02-26T17:18:11.263Z,14.70
2019-02-26T17:20:41.262Z,15.10
2019-02-26T17:23:13.610Z,14.53
2019-02-26T17:25:42.770Z,13.37
2019-02-26T17:28:12.932Z,13.40
2019-02-26T17:30:42.987Z,13.77
2019-02-26T17:33:14.557Z,12.67
2019-02-26T17:35:44.500Z,13.23
2019-02-26T17:38:15.471Z,14.33
2019-02-26T17:40:45.978Z,13.67
2019-02-26T17:43:15.967Z,14.23
2019-02-26T17:45:47.778Z,14.63
2019-02-26T17:48:17.716Z,13.67
2019-02-26T17:50:48.175Z,14.00
2019-02-26T17:53:18.620Z,13.57
2019-02-26T17:55:48.773Z,14.20
2019-02-26T17:58:19.268Z,14.47
2019-02-26T18:00:53.683Z,15.07
2019-02-26T18:03:25.638Z,16.33
2019-02-26T18:05:55.795Z,15.43
2019-02-26T18:08:25.964Z,15.63
2019-02-26T18:10:56.295Z,16.17
2019-02-26T18:13:27.003Z,17.47
2019-02-26T18:15:59.128Z,17.70
2019-02-26T18:18:29.823Z,18.67
2019-02-26T18:21:00.235Z,19.13
2019-02-26T18:23:30.686Z,17.80
2019-02-26T18:26:00.911Z,18.43
2019-02-26T18:28:31.199Z,17.80
2019-02-26T18:31:01.142Z,17.20
2019-02-26T18:33:35.579Z,17.73
2019-02-26T18:36:03.798Z,17.17
2019-02-26T18:38:33.728Z,17.73
2019-02-26T18:41:03.669Z,16.97
2019-02-26T18:43:33.578Z,16.43
2019-02-26T18:46:03.760Z,17.50
2019-02-26T18:48:33.813Z,17.90
2019-02-26T18:51:03.733Z,17.83
2019-02-26T18:53:33.748Z,16.67
2019-02-26T18:56:04.314Z,16.57
2019-02-26T18:58:34.808Z,16.63
2019-02-26T19:01:04.945Z,17.67
2019-02-26T19:03:35.150Z,17.97
2019-02-26T19:06:05.324Z,18.00
2019-02-26T19:08:38.913Z,17.23
2019-02-26T19:11:07.296Z,16.73
2019-02-26T19:13:37.176Z,17.63
2019-02-26T19:16:07.137Z,16.47
2019-02-26T19:18:38.496Z,17.47
2019-02-26T19:21:08.533Z,16.60
2019-02-26T19:23:38.435Z,16.63
2019-02-26T19:26:08.376Z,17.20
2019-02-26T19:28:38.297Z,17.97
2019-02-26T19:31:09.832Z,16.53
2019-02-26T19:33:39.984Z,16.60
2019-02-26T19:36:10.670Z,17.07
2019-02-26T19:38:41.512Z,16.90
2019-02-26T19:41:13.187Z,15.07
2019-02-26T19:43:43.206Z,15.53
2019-02-26T19:46:16.841Z,15.60
2019-02-26T19:48:45.087Z,15.67
2019-02-26T19:51:17.148Z,14.27
2019-02-26T19:53:47.143Z,16.97
2019-02-26T19:56:23.242Z,19.13
2019-02-26T19:58:51.130Z,15.47
2019-02-26T20:01:25.579Z,15.87
2019-02-26T20:03:52.695Z,15.93
2019-02-26T20:06:23.592Z,16.07
2019-02-26T20:08:54.313Z,15.83
2019-02-26T20:11:24.466Z,15.97
2019-02-26T20:13:54.427Z,15.20
2019-02-26T20:16:27.590Z,15.67
2019-02-26T20:18:56.701Z,15.63
2019-02-26T20:21:27.949Z,15.43
2019-02-26T20:23:58.130Z,16.17
2019-02-26T20:26:28.141Z,16.13
2019-02-26T20:28:58.058Z,17.50
2019-02-26T20:31:28.939Z,18.47
2019-02-26T20:33:59.421Z,18.63
2019-02-26T20:36:29.425Z,19.73
2019-02-26T20:38:59.401Z,17.87
2019-02-26T20:41:29.347Z,17.77
2019-02-26T20:43:59.236Z,16.70
2019-02-26T20:46:29.368Z,17.83
2019-02-26T20:48:59.282Z,19.40
2019-02-26T20:51:29.216Z,17.87
2019-02-26T20:53:59.131Z,17.63
2019-02-26T20:56:30.984Z,19.07
2019-02-26T20:59:00.761Z,18.90
2019-02-26T21:01:32.481Z,20.20
2019-02-26T21:04:02.386Z,19.27
2019-02-26T21:06:32.282Z,17.63
2019-02-26T21:09:06.787Z,16.60
2019-02-26T21:11:33.841Z,16.77
2019-02-26T21:14:07.600Z,15.20
2019-02-26T21:16:35.733Z,15.63
2019-02-26T21:19:06.676Z,16.30
2019-02-26T21:21:36.567Z,14.73
2019-02-26T21:24:06.462Z,15.27
2019-02-26T21:26:36.438Z,15.10
2019-02-26T21:29:06.417Z,16.10
2019-02-26T21:31:36.476Z,16.47
2019-02-26T21:34:06.345Z,17.00
2019-02-26T21:36:36.234Z,15.97
2019-02-26T21:39:10.910Z,15.00
2019-02-26T21:41:39.155Z,14.97
2019-02-26T21:44:09.513Z,14.43
2019-02-26T21:46:39.441Z,14.33
2019-02-26T21:49:09.852Z,14.70
2019-02-26T21:51:40.435Z,13.10
2019-02-26T21:54:10.428Z,14.40
2019-02-26T21:56:40.331Z,13.00
2019-02-26T21:59:10.203Z,14.73
2019-02-26T22:01:41.355Z,14.17
2019-02-26T22:04:11.772Z,12.43
2019-02-26T22:06:44.398Z,12.90
2019-02-26T22:09:13.235Z,13.80
2019-02-26T22:11:43.441Z,13.83
2019-02-26T22:14:14.997Z,13.93
2019-02-26T22:16:44.872Z,14.40
2019-02-26T22:19:14.739Z,14.17
2019-02-26T22:21:52.752Z,13.57
2019-02-26T22:24:22.886Z,13.90
2019-02-26T22:27:11.770Z,14.33
2019-02-26T22:29:41.644Z,14.00
2019-02-26T22:32:11.532Z,13.60
2019-02-26T22:34:41.443Z,14.03
2019-02-26T22:37:11.327Z,13.87
2019-02-26T22:39:41.218Z,14.10
2019-02-26T22:42:12.078Z,13.87
2019-02-26T22:44:41.975Z,13.37
2019-02-26T22:47:13.556Z,13.33
2019-02-26T22:49:43.515Z,13.47
2019-02-26T22:52:13.387Z,13.37
2019-02-26T22:54:43.738Z,13.90
2019-02-26T22:57:14.026Z,13.17
2019-02-26T22:59:43.897Z,13.87
2019-02-26T23:02:13.992Z,13.40
2019-02-26T23:04:44.012Z,13.47
2019-02-26T23:07:14.648Z,13.80
2019-02-26T23:09:44.755Z,13.70
2019-02-26T23:12:15.947Z,12.90
2019-02-26T23:14:46.210Z,12.87
2019-02-26T23:17:16.310Z,13.17
2019-02-26T23:19:46.271Z,13.57
2019-02-26T23:22:16.653Z,13.53
2019-02-26T23:24:47.034Z,13.03
2019-02-26T23:27:17.031Z,13.97
2019-02-26T23:29:47.359Z,13.63
2019-02-26T23:32:17.783Z,14.03
2019-02-26T23:35:04.045Z,13.90
2019-02-26T23:37:34.718Z,13.57
2019-02-26T23:40:06.491Z,14.43
2019-02-26T23:42:38.554Z,13.07
2019-02-26T23:45:08.168Z,15.13
2019-02-26T23:47:38.084Z,14.97
2019-02-26T23:50:08.305Z,14.20
2019-02-26T23:52:38.267Z,14.47
2019-02-26T23:55:08.339Z,16.43
2019-02-26T23:57:38.228Z,15.23
